Time;durP1;ratioP1;P1;durP2;ratioP2;P2;SDS_P1;SDS_P2;PMS_P1;PMS_P2;Temp;Humidity;BMP_temperature;BMP_pressure;BME280_temperature;BME280_humidity;BME280_pressure;Samples;Min_cycle;Max_cycle;Signal;HPM_P1;HPM_P2
2024/04/09 00:01:08;;;;;;;8.80;5.00;;;;;;;12.71;100.00;100845.86;107741;1260;62035;-76
2024/04/09 00:03:37;;;;;;;8.80;5.20;;;;;;;12.72;100.00;100851.17;107687;1260;61905;-77
2024/04/09 00:06:14;;;;;;;8.80;5.10;;;;;;;12.71;100.00;100850.05;107676;1260;75406;-76
2024/04/09 00:08:44;;;;;;;9.50;5.30;;;;;;;12.67;100.00;100845.76;107673;1260;72638;-76
2024/04/09 00:11:24;;;;;;;8.10;4.80;;;;;;;12.64;100.00;100841.08;107723;1260;72516;-78
2024/04/09 00:13:53;;;;;;;8.10;4.60;;;;;;;12.59;100.00;100833.35;107779;1260;61935;-77
2024/04/09 00:16:24;;;;;;;8.40;5.10;;;;;;;12.55;100.00;100835.27;107680;1260;60142;-79
2024/04/09 00:18:56;;;;;;;8.40;5.10;;;;;;;12.50;100.00;100833.64;107659;1260;75489;-76
2024/04/09 00:21:24;;;;;;;9.60;4.80;;;;;;;12.46;100.00;100833.36;107662;1260;72865;-75
2024/04/09 00:23:51;;;;;;;9.70;5.10;;;;;;;12.43;100.00;100838.05;107655;1261;72707;-77
2024/04/09 00:26:19;;;;;;;10.40;4.90;;;;;;;12.42;100.00;100838.27;107630;1260;62132;-76
2024/04/09 00:28:47;;;;;;;10.00;5.30;;;;;;;12.41;100.00;100838.76;107622;1264;60351;-76
2024/04/09 00:31:14;;;;;;;7.50;4.90;;;;;;;12.41;100.00;100843.69;107634;1264;75621;-81
2024/04/09 00:33:40;;;;;;;10.40;5.50;;;;;;;12.38;100.00;100846.40;107662;1261;72565;-77
2024/04/09 00:36:12;;;;;;;8.00;4.80;;;;;;;12.34;100.00;100852.97;107714;1260;71350;-77
2024/04/09 00:38:40;;;;;;;10.00;4.80;;;;;;;12.30;100.00;100847.87;107620;1260;61757;-80
2024/04/09 00:41:10;;;;;;;9.70;4.90;;;;;;;12.26;100.00;100848.92;107636;1260;62018;-76
2024/04/09 00:43:37;;;;;;;8.90;4.80;;;;;;;12.21;100.00;100846.48;107652;1260;75487;-77
2024/04/09 00:46:05;;;;;;;9.50;5.00;;;;;;;12.17;100.00;100849.31;107703;1260;72798;-76
2024/04/09 00:48:33;;;;;;;9.40;5.20;;;;;;;12.13;100.00;100848.96;107550;1261;72236;-74
2024/04/09 00:51:00;;;;;;;10.30;5.30;;;;;;;12.10;100.00;100852.58;107563;1260;62012;-76
2024/04/09 00:53:28;;;;;;;8.60;4.70;;;;;;;12.06;100.00;100851.38;107694;1259;61933;-77
2024/04/09 00:55:55;;;;;;;10.00;4.80;;;;;;;12.04;100.00;100850.73;107717;1260;75201;-79
2024/04/09 00:58:23;;;;;;;9.30;4.70;;;;;;;11.99;100.00;100853.16;107689;1260;72776;-77
2024/04/09 01:00:49;;;;;;;9.40;5.20;;;;;;;11.95;100.00;100851.91;107683;1261;71392;-77
2024/04/09 01:03:17;;;;;;;8.50;4.80;;;;;;;11.94;100.00;100850.25;107682;1260;62043;-77
2024/04/09 01:05:44;;;;;;;9.30;4.80;;;;;;;11.92;100.00;100848.84;107676;1260;62063;-77
2024/04/09 01:08:11;;;;;;;10.20;5.30;;;;;;;11.91;100.00;100852.27;107651;1260;75019;-77
2024/04/09 01:10:37;;;;;;;10.50;4.80;;;;;;;11.87;100.00;100852.93;107612;1261;72550;-77
2024/04/09 01:13:05;;;;;;;8.10;4.70;;;;;;;11.84;100.00;100849.70;107658;1259;72630;-77
2024/04/09 01:15:32;;;;;;;11.10;5.50;;;;;;;11.80;100.00;100847.98;107644;1263;62104;-77
2024/04/09 01:17:59;;;;;;;8.70;5.20;;;;;;;11.75;100.00;100853.89;107734;1259;61951;-77
2024/04/09 01:20:29;;;;;;;8.50;4.80;;;;;;;11.71;100.00;100856.54;107704;1260;75154;-75
2024/04/09 01:22:55;;;;;;;7.90;4.50;;;;;;;11.68;100.00;100854.89;107591;1260;72557;-76
2024/04/09 01:25:22;;;;;;;8.00;4.80;;;;;;;11.64;100.00;100852.32;107635;1260;72734;-76
2024/04/09 01:27:49;;;;;;;10.00;4.90;;;;;;;11.62;100.00;100855.78;107656;1260;62016;-76
2024/04/09 01:30:18;;;;;;;8.60;4.80;;;;;;;11.59;100.00;100855.16;107652;1260;62016;-77
2024/04/09 01:32:46;;;;;;;9.70;4.90;;;;;;;11.57;100.00;100852.05;107658;1259;75259;-75
2024/04/09 01:35:14;;;;;;;9.80;5.50;;;;;;;11.54;100.00;100850.63;107708;1264;71819;-77
2024/04/09 01:37:41;;;;;;;10.30;4.90;;;;;;;11.48;100.00;100852.56;107631;1264;73037;-76
2024/04/09 01:40:08;;;;;;;7.70;4.10;;;;;;;11.43;100.00;100855.10;107612;1260;62050;-75
2024/04/09 01:42:35;;;;;;;9.00;4.20;;;;;;;11.40;100.00;100856.52;107613;1260;62069;-76
2024/04/09 01:45:02;;;;;;;9.20;4.80;;;;;;;11.35;100.00;100860.05;107727;1260;75242;-76
2024/04/09 01:47:30;;;;;;;8.40;4.20;;;;;;;11.31;100.00;100863.98;107625;1260;72592;-77
2024/04/09 01:49:57;;;;;;;7.50;4.10;;;;;;;11.27;100.00;100864.16;107706;1260;71530;-77
2024/04/09 01:52:25;;;;;;;7.80;4.40;;;;;;;11.24;100.00;100862.52;107790;1259;62050;-77
2024/04/09 01:54:53;;;;;;;8.90;4.20;;;;;;;11.21;100.00;100863.13;107786;1260;61906;-76
2024/04/09 01:57:20;;;;;;;7.00;4.20;;;;;;;11.05;100.00;100870.10;107782;1260;75280;-77
2024/04/09 01:59:47;;;;;;;7.50;4.20;;;;;;;11.11;100.00;100869.14;107757;1260;72589;-78
2024/04/09 02:02:16;;;;;;;9.30;4.40;;;;;;;11.11;100.00;100872.56;107710;1261;72724;-78
2024/04/09 02:04:44;;;;;;;8.10;3.70;;;;;;;11.10;100.00;100875.55;107705;1259;62070;-77
2024/04/09 02:07:11;;;;;;;8.50;3.80;;;;;;;11.09;100.00;100874.08;107729;1260;61932;-76
2024/04/09 02:09:38;;;;;;;10.50;4.60;;;;;;;11.07;100.00;100872.90;107731;1263;75456;-79
2024/04/09 02:12:07;;;;;;;7.80;4.00;;;;;;;11.05;100.00;100873.20;107788;1260;72864;-78
2024/04/09 02:14:37;;;;;;;8.50;4.50;;;;;;;11.03;100.00;100870.94;107760;1260;72701;-75
2024/04/09 02:17:05;;;;;;;8.00;4.40;;;;;;;11.01;100.00;100870.02;107813;1260;62331;-75
2024/04/09 02:19:32;;;;;;;7.70;4.40;;;;;;;11.01;100.00;100874.55;107771;1259;61940;-77
2024/04/09 02:22:00;;;;;;;8.90;4.00;;;;;;;10.98;100.00;100875.48;107801;1260;75196;-77
2024/04/09 02:24:27;;;;;;;7.90;4.40;;;;;;;10.95;100.00;100874.81;107757;1260;72869;-77
2024/04/09 02:26:54;;;;;;;8.90;4.60;;;;;;;10.92;100.00;100871.78;107709;1259;72631;-77
2024/04/09 02:29:21;;;;;;;7.20;4.60;;;;;;;10.88;100.00;100867.63;107751;1260;62034;-78
2024/04/09 02:31:47;;;;;;;7.70;4.60;;;;;;;10.85;100.00;100869.14;107788;1259;62108;-77
2024/04/09 02:34:14;;;;;;;8.60;4.80;;;;;;;10.83;100.00;100873.09;107638;1260;75216;-78
2024/04/09 02:36:41;;;;;;;10.50;4.80;;;;;;;10.80;100.00;100870.64;107697;1259;70699;-77
2024/04/09 02:39:08;;;;;;;8.20;4.90;;;;;;;10.79;100.00;100871.37;107768;1260;72392;-77
2024/04/09 02:41:39;;;;;;;9.00;5.20;;;;;;;10.77;100.00;100873.65;107707;1260;62049;-77
2024/04/09 02:44:07;;;;;;;10.70;4.90;;;;;;;10.76;100.00;100876.90;107692;1259;61887;-77
2024/04/09 02:46:34;;;;;;;8.40;4.20;;;;;;;10.74;100.00;100880.56;107707;1263;75544;-77
2024/04/09 02:49:03;;;;;;;8.90;4.70;;;;;;;10.71;100.00;100879.99;107668;1260;72558;-77
2024/04/09 02:51:30;;;;;;;8.20;4.70;;;;;;;10.68;100.00;100881.19;107548;1259;72708;-77
2024/04/09 02:53:57;;;;;;;8.90;4.30;;;;;;;10.66;100.00;100878.18;107596;1260;61917;-78
2024/04/09 02:56:24;;;;;;;13.00;4.70;;;;;;;10.63;100.00;100881.62;107651;1260;61931;-77
2024/04/09 02:58:50;;;;;;;6.50;4.30;;;;;;;10.62;100.00;100881.91;107744;1259;74208;-77
2024/04/09 03:01:17;;;;;;;7.20;4.40;;;;;;;10.61;100.00;100881.16;107709;1260;72446;-76
2024/04/09 03:03:44;;;;;;;10.40;5.50;;;;;;;10.59;100.00;100882.63;107587;1260;72485;-78
2024/04/09 03:06:12;;;;;;;8.10;4.70;;;;;;;10.58;100.00;100887.69;107650;1264;61912;-76
2024/04/09 03:08:42;;;;;;;8.80;5.10;;;;;;;10.57;100.00;100887.48;107724;1259;61868;-78
2024/04/09 03:11:16;;;;;;;7.70;4.90;;;;;;;10.56;100.00;100892.80;107698;1259;76331;-77
2024/04/09 03:13:45;;;;;;;9.40;5.00;;;;;;;10.54;100.00;100896.83;107704;1260;73792;-76
2024/04/09 03:16:21;;;;;;;10.50;5.50;;;;;;;10.53;100.00;100900.39;107657;1259;72772;-77
2024/04/09 03:18:55;;;;;;;10.10;5.20;;;;;;;10.51;100.00;100902.14;107646;1260;60803;-78
2024/04/09 03:21:22;;;;;;;8.80;5.40;;;;;;;10.48;100.00;100905.58;107697;1260;62128;-75
2024/04/09 03:23:49;;;;;;;8.70;5.20;;;;;;;10.46;100.00;100909.30;107668;1260;75302;-76
2024/04/09 03:26:16;;;;;;;8.90;4.80;;;;;;;10.45;100.00;100916.70;107614;1260;72840;-80
2024/04/09 03:28:42;;;;;;;7.50;4.10;;;;;;;10.42;100.00;100912.23;107738;1259;72498;-76
2024/04/09 03:31:09;;;;;;;6.60;4.40;;;;;;;10.39;100.00;100912.45;107726;1260;61900;-77
2024/04/09 03:33:36;;;;;;;9.70;4.70;;;;;;;10.32;100.00;100917.77;107630;1260;61922;-77
2024/04/09 03:36:05;;;;;;;7.20;4.40;;;;;;;10.30;100.00;100920.81;107696;1259;73893;-75
2024/04/09 03:38:32;;;;;;;9.90;4.90;;;;;;;10.30;100.00;100920.41;107676;1260;72058;-75
2024/04/09 03:41:04;;;;;;;9.20;4.20;;;;;;;10.32;100.00;100918.39;107717;1259;72492;-76
2024/04/09 03:43:33;;;;;;;7.30;4.40;;;;;;;10.32;100.00;100919.77;107692;1260;61933;-76
2024/04/09 03:46:10;;;;;;;8.80;4.60;;;;;;;10.34;100.00;100922.00;107701;1259;61295;-76
2024/04/09 03:48:42;;;;;;;7.30;4.60;;;;;;;10.36;100.00;100921.92;107690;1260;74295;-77
2024/04/09 03:51:10;;;;;;;6.90;4.30;;;;;;;10.41;100.00;100918.94;107736;1259;70985;-76
2024/04/09 03:53:37;;;;;;;8.20;4.60;;;;;;;10.45;100.00;100925.18;107746;1260;72504;-76
2024/04/09 03:56:06;;;;;;;7.20;4.40;;;;;;;10.48;100.00;100923.79;107703;1259;62588;-77
2024/04/09 03:58:34;;;;;;;10.40;5.30;;;;;;;10.53;100.00;100925.04;107795;1259;62018;-77
2024/04/09 04:01:03;;;;;;;8.30;4.70;;;;;;;10.59;100.00;100925.54;107784;1259;74554;-77
2024/04/09 04:03:37;;;;;;;8.90;4.60;;;;;;;10.66;100.00;100928.72;107765;1259;73196;-77
2024/04/09 04:06:05;;;;;;;8.90;4.80;;;;;;;10.72;100.00;100925.85;107687;1259;72707;-77
2024/04/09 04:08:36;;;;;;;8.60;5.10;;;;;;;10.79;100.00;100931.98;107861;1259;61995;-78
2024/04/09 04:11:05;;;;;;;6.80;4.40;;;;;;;10.87;100.00;100938.11;107717;1259;62041;-76
2024/04/09 04:13:33;;;;;;;8.00;4.80;;;;;;;10.95;100.00;100941.20;107690;1260;75440;-77
2024/04/09 04:16:00;;;;;;;7.90;4.30;;;;;;;11.05;100.00;100944.99;107813;1262;71376;-76
2024/04/09 04:18:27;;;;;;;8.10;4.50;;;;;;;11.13;100.00;100943.59;107728;1260;72612;-77
2024/04/09 04:20:54;;;;;;;10.70;5.00;;;;;;;11.20;100.00;100944.20;107751;1260;61994;-76
2024/04/09 04:23:21;;;;;;;8.50;4.60;;;;;;;11.27;100.00;100944.43;107716;1259;61071;-76
2024/04/09 04:26:04;;;;;;;9.30;4.80;;;;;;;11.35;100.00;100943.11;107764;1260;75510;-77
2024/04/09 04:28:35;;;;;;;9.50;5.00;;;;;;;11.45;100.00;100940.92;107639;1260;72812;-77
2024/04/09 04:31:07;;;;;;;7.60;4.50;;;;;;;11.57;100.00;100945.67;107639;1259;72466;-76
2024/04/09 04:33:34;;;;;;;7.20;4.90;;;;;;;11.68;100.00;100945.25;107563;1262;62072;-78
2024/04/09 04:36:01;;;;;;;8.30;4.60;;;;;;;11.80;100.00;100949.38;107573;1260;61950;-76
2024/04/09 04:38:28;;;;;;;6.60;4.30;;;;;;;11.93;100.00;100948.27;107701;1260;74424;-76
2024/04/09 04:40:55;;;;;;;7.40;4.50;;;;;;;12.08;100.00;100940.82;107690;1260;72661;-75
2024/04/09 04:43:22;;;;;;;7.60;5.00;;;;;;;12.22;100.00;100938.20;107697;1259;72496;-76
2024/04/09 04:45:49;;;;;;;8.20;4.50;;;;;;;12.35;100.00;100939.83;107682;1259;61904;-76
2024/04/09 04:48:18;;;;;;;8.20;4.60;;;;;;;12.49;100.00;100941.98;107648;1260;61952;-76
2024/04/09 04:50:46;;;;;;;7.50;4.10;;;;;;;12.62;100.00;100935.56;107761;1260;75576;-77
2024/04/09 04:53:13;;;;;;;7.30;4.40;;;;;;;12.77;100.00;100938.84;107675;1260;72565;-77
2024/04/09 04:55:40;;;;;;;8.80;4.60;;;;;;;12.91;100.00;100936.77;107727;1260;72594;-77
2024/04/09 04:58:06;;;;;;;7.30;4.70;;;;;;;13.06;100.00;100934.71;107693;1258;62015;-76
2024/04/09 05:00:35;;;;;;;7.40;4.40;;;;;;;13.20;100.00;100937.17;107715;1259;61941;-77
2024/04/09 05:03:03;;;;;;;9.50;4.50;;;;;;;13.34;100.00;100945.27;107716;1259;75482;-78
2024/04/09 05:05:31;;;;;;;7.70;4.30;;;;;;;13.50;100.00;100938.52;107624;1259;71730;-77
2024/04/09 05:07:59;;;;;;;8.20;4.20;;;;;;;13.89;100.00;100934.72;107739;1260;72703;-76
2024/04/09 05:10:27;;;;;;;6.60;3.90;;;;;;;14.09;100.00;100939.48;107652;1259;61925;-75
2024/04/09 05:12:54;;;;;;;7.80;4.40;;;;;;;14.37;100.00;100934.37;107636;1260;61273;-76
2024/04/09 05:15:22;;;;;;;6.50;4.00;;;;;;;14.59;100.00;100932.61;107821;1262;75546;-76
2024/04/09 05:17:49;;;;;;;6.70;4.00;;;;;;;14.29;100.00;100934.27;107809;1259;71152;-77
2024/04/09 05:20:16;;;;;;;6.80;4.50;;;;;;;14.35;100.00;100938.30;107694;1258;72700;-76
2024/04/09 05:22:47;;;;;;;6.40;4.30;;;;;;;14.49;100.00;100940.70;107644;1259;62037;-76
2024/04/09 05:25:15;;;;;;;7.60;4.80;;;;;;;14.65;100.00;100941.37;107581;1259;60453;-75
2024/04/09 05:27:44;;;;;;;7.70;4.30;;;;;;;14.80;100.00;100940.12;107690;1259;75292;-76
2024/04/09 05:30:11;;;;;;;7.20;4.30;;;;;;;14.95;100.00;100936.39;107596;1259;72566;-78
2024/04/09 05:32:41;;;;;;;7.70;4.30;;;;;;;15.09;100.00;100934.22;107607;1259;71628;-76
2024/04/09 05:35:09;;;;;;;6.70;4.60;;;;;;;15.41;99.49;100934.78;107702;1259;62130;-80
2024/04/09 05:37:37;;;;;;;5.80;4.20;;;;;;;15.77;95.40;100931.77;107667;1259;62160;-76
2024/04/09 05:40:08;;;;;;;6.40;4.10;;;;;;;15.62;95.22;100934.90;107850;1259;74278;-77
2024/04/09 05:42:46;;;;;;;8.80;4.50;;;;;;;15.74;92.26;100932.19;107503;1259;72656;-77
2024/04/09 05:45:14;;;;;;;6.10;3.90;;;;;;;15.88;89.34;100933.89;107706;1259;72746;-78
2024/04/09 05:47:42;;;;;;;5.80;3.90;;;;;;;16.00;86.90;100933.89;107703;1260;62061;-76
2024/04/09 05:50:10;;;;;;;6.20;3.60;;;;;;;16.12;85.25;100932.23;107670;1259;62685;-75
2024/04/09 05:52:37;;;;;;;5.20;3.70;;;;;;;16.26;84.67;100929.55;107604;1260;75477;-77
2024/04/09 05:55:05;;;;;;;9.80;4.10;;;;;;;16.58;81.83;100931.66;107679;1259;72534;-78
2024/04/09 05:57:36;;;;;;;6.70;3.70;;;;;;;16.78;78.71;100929.39;107676;1260;72751;-78
2024/04/09 06:00:08;;;;;;;7.40;3.90;;;;;;;16.56;79.73;100936.93;107662;1259;62169;-77
2024/04/09 06:02:41;;;;;;;5.60;3.50;;;;;;;16.64;78.21;100935.22;107665;1259;62163;-75
2024/04/09 06:05:08;;;;;;;7.80;3.70;;;;;;;16.72;75.81;100936.15;107638;1259;75901;-76
2024/04/09 06:07:35;;;;;;;6.90;4.00;;;;;;;16.82;74.81;100935.73;107667;1260;73801;-76
2024/04/09 06:10:18;;;;;;;6.40;3.60;;;;;;;16.92;73.98;100940.78;107677;1259;71744;-76
2024/04/09 06:13:31;;;;;;;6.60;3.50;;;;;;;17.07;73.17;100938.08;107666;1260;61408;-77
2024/04/09 06:15:58;;;;;;;7.50;3.60;;;;;;;17.18;72.17;100939.89;107752;1259;61929;-78
2024/04/09 06:18:25;;;;;;;5.70;3.80;;;;;;;17.29;71.27;100937.73;107697;1259;74080;-78
2024/04/09 06:20:52;;;;;;;6.10;3.90;;;;;;;17.41;70.03;100937.55;107701;1259;71668;-78
2024/04/09 06:23:21;;;;;;;6.30;3.50;;;;;;;17.54;69.03;100937.02;107665;1260;73810;-78
2024/04/09 06:25:55;;;;;;;5.40;3.70;;;;;;;17.68;68.36;100942.05;107671;1259;62210;-77
2024/04/09 06:28:22;;;;;;;7.00;3.80;;;;;;;17.81;67.58;100941.91;107588;1259;61978;-78
2024/04/09 06:30:48;;;;;;;8.40;4.00;;;;;;;17.94;66.58;100941.53;107698;1259;75274;-77
2024/04/09 06:33:15;;;;;;;6.40;3.60;;;;;;;18.06;65.65;100941.42;107841;1259;73447;-77
2024/04/09 06:35:43;;;;;;;6.80;3.30;;;;;;;18.20;64.45;100943.13;107729;1259;72572;-77
2024/04/09 06:38:10;;;;;;;5.00;2.90;;;;;;;18.31;63.79;100947.79;107617;1260;62064;-77
2024/04/09 06:40:37;;;;;;;6.20;3.20;;;;;;;18.43;63.28;100946.53;107774;1260;62092;-78
2024/04/09 06:43:05;;;;;;;5.00;2.70;;;;;;;18.57;62.95;100950.70;107600;1259;75553;-76
2024/04/09 06:45:31;;;;;;;4.30;2.80;;;;;;;18.73;61.74;100946.73;107679;1260;72883;-76
2024/04/09 06:47:58;;;;;;;5.90;3.00;;;;;;;18.88;60.90;100948.48;107692;1260;71248;-77
2024/04/09 06:50:25;;;;;;;5.00;2.70;;;;;;;19.03;60.49;100950.80;107744;1259;61937;-76
2024/04/09 06:52:53;;;;;;;4.40;2.80;;;;;;;19.20;60.09;100948.13;107673;1262;62041;-77
2024/04/09 06:55:19;;;;;;;7.10;2.70;;;;;;;19.36;58.94;100944.76;107655;1259;75882;-77
2024/04/09 06:57:46;;;;;;;5.40;2.90;;;;;;;19.52;57.33;100945.05;99955;1259;10001853;-77
2024/04/09 07:00:17;;;;;;;5.90;2.90;;;;;;;19.66;55.42;100942.13;99544;1259;10002140;-77
2024/04/09 07:02:44;;;;;;;4.30;2.50;;;;;;;19.78;54.74;100941.78;107567;1259;72957;-76
2024/04/09 07:05:11;;;;;;;5.40;2.60;;;;;;;19.91;53.63;100942.27;107567;1259;72887;-76
2024/04/09 07:07:38;;;;;;;9.00;2.60;;;;;;;20.03;52.80;100943.96;107579;1259;62007;-77
2024/04/09 07:10:06;;;;;;;4.50;2.50;;;;;;;20.15;51.67;100938.27;107518;1259;62019;-77
2024/04/09 07:12:33;;;;;;;4.20;2.50;;;;;;;20.29;50.96;100936.61;107534;1263;75917;-75
2024/04/09 07:15:00;;;;;;;4.10;2.50;;;;;;;20.43;50.88;100940.34;107742;1259;71855;-77
2024/04/09 07:17:27;;;;;;;5.40;2.30;;;;;;;20.60;50.38;100936.70;107606;1259;74325;-77
2024/04/09 07:19:57;;;;;;;4.10;2.20;;;;;;;20.76;49.88;100939.83;107515;1259;62128;-77
2024/04/09 07:22:26;;;;;;;4.30;2.20;;;;;;;20.92;49.77;100937.07;107515;1259;62123;-76
2024/04/09 07:24:52;;;;;;;4.70;2.30;;;;;;;21.07;49.39;100939.27;107469;1259;75396;-78
2024/04/09 07:27:19;;;;;;;4.10;2.00;;;;;;;21.23;48.36;100935.11;107558;1259;72823;-78
2024/04/09 07:29:46;;;;;;;4.40;2.10;;;;;;;21.39;47.86;100934.41;107525;1262;72605;-77
2024/04/09 07:32:13;;;;;;;4.90;1.90;;;;;;;21.55;47.12;100930.37;107669;1259;60482;-77
2024/04/09 07:34:43;;;;;;;4.10;2.00;;;;;;;21.71;46.55;100929.29;107512;1259;61873;-77
2024/04/09 07:37:10;;;;;;;3.30;1.80;;;;;;;21.87;45.65;100926.46;107511;1259;75420;-77
2024/04/09 07:39:37;;;;;;;4.20;1.90;;;;;;;22.01;44.43;100927.36;107521;1259;72960;-77
2024/04/09 07:42:04;;;;;;;2.80;1.60;;;;;;;22.11;43.86;100925.77;107492;1259;72639;-77
2024/04/09 07:44:32;;;;;;;3.20;1.70;;;;;;;22.22;43.60;100928.21;107500;1263;61963;-79
2024/04/09 07:46:59;;;;;;;3.80;1.70;;;;;;;22.34;42.67;100922.54;107538;1259;61881;-77
2024/04/09 07:49:26;;;;;;;3.40;1.80;;;;;;;22.44;42.28;100920.59;107689;1259;75179;-78
2024/04/09 07:51:53;;;;;;;3.50;1.60;;;;;;;22.56;42.27;100920.55;107596;1260;72868;-78
2024/04/09 07:54:21;;;;;;;3.50;1.70;;;;;;;22.72;41.56;100914.32;107587;1259;71863;-77
2024/04/09 07:56:48;;;;;;;2.50;1.40;;;;;;;22.89;40.77;100912.55;107589;1259;62068;-76
2024/04/09 07:59:15;;;;;;;3.90;1.70;;;;;;;23.03;39.69;100910.31;107660;1259;62038;-77
2024/04/09 08:01:41;;;;;;;3.30;1.70;;;;;;;23.15;38.85;100904.77;107501;1259;75821;-77
2024/04/09 08:04:08;;;;;;;2.60;1.40;;;;;;;23.23;38.01;100907.08;107524;1259;71372;-78
2024/04/09 08:06:36;;;;;;;2.10;1.20;;;;;;;23.28;37.38;100898.38;107635;1259;72833;-77
2024/04/09 08:09:03;;;;;;;1.70;1.10;;;;;;;23.33;37.45;100890.83;107858;1260;61249;-78
2024/04/09 08:11:31;;;;;;;2.80;1.40;;;;;;;23.41;37.68;100888.16;107645;1259;62574;-77
2024/04/09 08:13:57;;;;;;;2.30;1.20;;;;;;;23.50;37.07;100884.89;107615;1259;74335;-77
2024/04/09 08:16:24;;;;;;;4.10;1.60;;;;;;;23.58;37.42;100887.14;107719;1259;72690;-77
2024/04/09 08:18:51;;;;;;;3.80;1.40;;;;;;;23.69;37.11;100885.80;107682;1262;74001;-78
2024/04/09 08:21:18;;;;;;;2.10;1.20;;;;;;;23.82;37.66;100883.67;107878;1259;61794;-77
2024/04/09 08:23:49;;;;;;;3.30;1.10;;;;;;;23.97;37.11;100880.42;107624;1260;62031;-77
2024/04/09 08:26:16;;;;;;;3.30;1.20;;;;;;;24.10;36.81;100877.27;107701;1259;74837;-77
2024/04/09 08:28:43;;;;;;;2.40;1.30;;;;;;;24.23;36.94;100877.45;107641;1260;74173;-78
2024/04/09 08:31:17;;;;;;;2.90;1.30;;;;;;;24.33;36.16;100878.10;107714;1259;72306;-78
2024/04/09 08:33:44;;;;;;;7.50;1.80;;;;;;;24.41;35.90;100877.02;107695;1259;62054;-78
2024/04/09 08:36:11;;;;;;;2.90;1.50;;;;;;;24.46;35.06;100873.92;107651;1259;61951;-78
2024/04/09 08:38:38;;;;;;;3.30;1.30;;;;;;;24.50;34.81;100871.77;107695;1259;75566;-76
2024/04/09 08:41:08;;;;;;;2.40;1.20;;;;;;;24.52;34.60;100875.42;107711;1260;72711;-77
2024/04/09 08:43:36;;;;;;;3.30;1.30;;;;;;;24.57;34.50;100874.95;107573;1265;73931;-77
2024/04/09 08:46:03;;;;;;;2.30;1.10;;;;;;;24.65;34.58;100868.61;107717;1259;62033;-77
2024/04/09 08:48:31;;;;;;;2.50;1.30;;;;;;;24.72;33.91;100866.95;107703;1260;61304;-77
2024/04/09 08:50:59;;;;;;;4.50;1.40;;;;;;;24.74;33.37;100869.04;107680;1259;75906;-76
2024/04/09 08:53:26;;;;;;;2.70;1.20;;;;;;;24.76;33.53;100865.54;107582;1259;72789;-77
2024/04/09 08:55:54;;;;;;;2.20;1.20;;;;;;;24.79;33.20;100864.98;107565;1259;72713;-78
2024/04/09 08:58:20;;;;;;;3.00;1.70;;;;;;;24.79;32.79;100864.05;107671;1264;61945;-76
2024/04/09 09:00:48;;;;;;;2.50;1.40;;;;;;;24.74;32.75;100864.45;107774;1259;61900;-78
2024/04/09 09:03:15;;;;;;;1.90;1.20;;;;;;;24.76;33.04;100859.83;107723;1259;75322;-78
2024/04/09 09:05:42;;;;;;;3.60;1.50;;;;;;;24.80;32.97;100853.31;107834;1260;72842;-78
2024/04/09 09:08:09;;;;;;;2.90;1.30;;;;;;;24.87;33.26;100851.16;107636;1260;73747;-78
2024/04/09 09:10:36;;;;;;;2.70;1.40;;;;;;;24.98;33.32;100846.87;107624;1262;60656;-78
2024/04/09 09:13:04;;;;;;;2.40;1.50;;;;;;;25.11;33.53;100847.23;107575;1259;61947;-78
2024/04/09 09:15:31;;;;;;;1.90;1.20;;;;;;;25.24;32.75;100849.17;107773;1259;75744;-77
2024/04/09 09:17:58;;;;;;;4.50;1.30;;;;;;;25.26;32.42;100844.46;107732;1259;72941;-79
2024/04/09 09:20:26;;;;;;;3.20;1.30;;;;;;;25.25;32.08;100842.96;107666;1259;72609;-79
2024/04/09 09:22:54;;;;;;;2.10;1.10;;;;;;;25.24;32.02;100840.67;107641;1264;61876;-75
2024/04/09 09:25:22;;;;;;;2.30;1.40;;;;;;;25.25;31.79;100840.45;107595;1259;62503;-77
2024/04/09 09:28:01;;;;;;;4.40;1.50;;;;;;;25.20;31.82;100840.08;107590;1259;75774;-77
2024/04/09 09:30:37;;;;;;;4.10;1.60;;;;;;;25.20;32.00;100834.69;107706;1260;72175;-78
2024/04/09 09:33:04;;;;;;;2.40;1.40;;;;;;;25.27;32.09;100830.81;107758;1259;72827;-78
2024/04/09 09:35:35;;;;;;;2.60;1.30;;;;;;;25.39;31.90;100830.13;107790;1260;61884;-77
2024/04/09 09:38:03;;;;;;;3.10;1.50;;;;;;;25.40;31.18;100826.96;107617;1262;62365;-77
2024/04/09 09:40:30;;;;;;;3.40;1.70;;;;;;;25.32;31.30;100824.48;107639;1260;74387;-77
2024/04/09 09:42:57;;;;;;;4.00;1.70;;;;;;;25.26;31.02;100821.11;107603;1265;72836;-77
2024/04/09 09:45:24;;;;;;;3.10;1.60;;;;;;;25.27;31.73;100818.40;107718;1259;71345;-78
2024/04/09 09:47:53;;;;;;;2.70;1.70;;;;;;;25.38;31.63;100819.33;107672;1259;61732;-77
2024/04/09 09:50:23;;;;;;;3.60;1.80;;;;;;;25.41;30.35;100818.05;107652;1259;61840;-78
2024/04/09 09:52:51;;;;;;;2.80;1.70;;;;;;;25.39;31.07;100814.59;107682;1259;75286;-77
2024/04/09 09:55:18;;;;;;;2.30;1.40;;;;;;;25.47;31.35;100811.75;107707;1259;73139;-76
2024/04/09 09:57:47;;;;;;;3.40;1.80;;;;;;;25.58;30.39;100815.44;107607;1260;71449;-77
2024/04/09 10:00:15;;;;;;;3.50;1.90;;;;;;;25.58;29.90;100811.46;107597;1259;62000;-78
2024/04/09 10:02:43;;;;;;;3.60;2.30;;;;;;;25.51;30.03;100813.66;107711;1259;61907;-77
2024/04/09 10:05:17;;;;;;;2.90;1.90;;;;;;;25.48;30.31;100811.85;107656;1259;75282;-76
2024/04/09 10:07:48;;;;;;;3.00;1.90;;;;;;;25.53;30.81;100815.17;107617;1259;73626;-76
2024/04/09 10:10:29;;;;;;;2.50;1.50;;;;;;;25.64;30.50;100810.91;107695;1259;71752;-76
2024/04/09 10:13:06;;;;;;;3.80;1.80;;;;;;;25.67;29.54;100812.34;107646;1259;61942;-76
2024/04/09 10:15:34;;;;;;;4.20;2.00;;;;;;;25.68;29.58;100807.98;107829;1259;61933;-76
2024/04/09 10:18:04;;;;;;;3.50;1.90;;;;;;;25.69;29.50;100809.88;107732;1259;76972;-78
2024/04/09 10:20:35;;;;;;;2.90;1.70;;;;;;;25.69;29.26;100804.62;107662;1259;74233;-79
2024/04/09 10:23:04;;;;;;;4.50;1.90;;;;;;;25.66;29.01;100803.39;107697;1259;71233;-77
2024/04/09 10:25:41;;;;;;;3.30;1.60;;;;;;;25.65;29.18;100803.27;107686;1259;62014;-79
2024/04/09 10:28:25;;;;;;;5.50;1.60;;;;;;;25.63;29.22;100803.14;107706;1260;61165;-78
2024/04/09 10:30:53;;;;;;;4.90;1.80;;;;;;;25.70;29.54;100800.67;107686;1263;74489;-79
2024/04/09 10:33:27;;;;;;;3.50;1.50;;;;;;;25.81;29.84;100801.95;107715;1263;72903;-82
2024/04/09 10:35:56;;;;;;;4.30;1.90;;;;;;;25.91;29.36;100793.30;107713;1259;70845;-76
2024/04/09 10:38:24;;;;;;;3.50;1.80;;;;;;;25.95;28.75;100798.26;107637;1259;61904;-79
2024/04/09 10:40:51;;;;;;;3.70;1.90;;;;;;;26.00;28.82;100793.44;107709;1260;61944;-78
2024/04/09 10:43:17;;;;;;;3.30;1.60;;;;;;;26.07;28.56;100793.37;107551;1259;76724;-77
2024/04/09 10:45:45;;;;;;;3.10;1.50;;;;;;;26.15;28.56;100793.32;107691;1259;65347;-78
2024/04/09 10:48:31;;;;;;;2.70;1.60;;;;;;;26.26;27.54;100788.15;107542;1260;73898;-79
2024/04/09 10:50:59;;;;;;;2.20;1.30;;;;;;;26.33;27.48;100787.21;107631;1260;60593;-76
2024/04/09 10:53:26;;;;;;;3.50;1.60;;;;;;;26.40;27.14;100787.99;107674;1259;61777;-79
2024/04/09 10:56:03;;;;;;;3.50;1.70;;;;;;;26.46;27.49;100780.62;107686;1259;76670;-77
2024/04/09 10:58:31;;;;;;;2.80;1.50;;;;;;;26.54;27.40;100776.58;107730;1260;64007;-75
2024/04/09 11:00:59;;;;;;;2.30;1.60;;;;;;;26.59;27.35;100776.12;107774;1259;64071;-76
2024/04/09 11:03:34;;;;;;;4.10;1.60;;;;;;;26.56;27.18;100777.17;107761;1258;62057;-77
2024/04/09 11:06:05;;;;;;;3.80;2.00;;;;;;;26.54;27.39;100769.52;107655;1260;61940;-76
2024/04/09 11:08:34;;;;;;;3.90;1.90;;;;;;;26.55;27.23;100767.29;107705;1259;75614;-76
2024/04/09 11:11:06;;;;;;;6.10;1.70;;;;;;;26.55;26.71;100764.69;107718;1260;72975;-77
2024/04/09 11:13:33;;;;;;;3.50;1.80;;;;;;;26.48;26.54;100763.68;107574;1260;71478;-77
2024/04/09 11:16:01;;;;;;;3.50;1.80;;;;;;;26.42;26.64;100760.27;107757;1259;62031;-78
2024/04/09 11:18:30;;;;;;;3.20;1.70;;;;;;;26.46;27.00;100759.55;107738;1258;61921;-78